Data for 08/31/2010

Time Sea-Level Adjusted Pressure Absolute Pressure Temperature Relative Humidity Dew Point   
(mb) (inHg) (mb) (inHg) (C) (F) (%) (C) (F)
00:05 1019 30.09 848 25.04 5.7 42.2 92 4.5 40
00:10 1019 30.09 848 25.04 5.7 42.3 92 4.5 40.1
00:15 1019 30.09 848 25.04 5.7 42.3 92 4.5 40.2
00:20 1019 30.09 848 25.04 5.7 42.3 92 4.6 40.2
00:25 1019 30.09 848 25.04 5.8 42.4 92 4.6 40.3
00:30 1019 30.09 848 25.04 5.8 42.4 92 4.5 40.2
00:35 1019 30.09 848 25.04 5.7 42.3 91 4.4 39.9
00:40 1019 30.09 848 25.04 5.7 42.2 92 4.4 40
00:45 1019 30.09 848 25.04 5.7 42.2 92 4.5 40.1
00:50 1019 30.09 848 25.04 5.7 42.2 93 4.6 40.3
00:55 1019 30.09 848 25.04 5.6 42.1 93 4.6 40.3
01:00 1019 30.09 848 25.04 5.5 41.9 94 4.6 40.2
01:05 1019 30.09 848 25.04 5.5 41.9 93 4.4 39.9
01:10 1019 30.09 848 25.04 5.5 41.9 92 4.3 39.8
01:15 1019 30.09 848 25.04 5.5 41.9 93 4.5 40.1
01:20 1019 30.09 848 25.04 5.4 41.8 94 4.5 40.1
01:25 1019 30.09 848 25.04 5.4 41.7 93 4.4 39.9
01:30 1019 30.09 848 25.04 5.3 41.6 94 4.4 39.9
01:35 1019 30.09 848 25.04 5.3 41.5 94 4.3 39.8
01:40 1019 30.09 848 25.04 5.2 41.4 94 4.3 39.8
01:45 1019 30.09 848 25.04 5.2 41.3 93 4.2 39.5
01:50 1019 30.09 848 25.04 5.2 41.3 92 3.9 39.1
01:55 1019 30.09 848 25.04 5.3 41.5 92 4.1 39.4
02:00 1019 30.09 848 25.04 5.1 41.3 93 4.1 39.4
02:05 1019 30.09 848 25.04 5 40.9 94 4 39.3
02:10 1018 30.06 848 25.04 4.9 40.9 93 4 39.1
02:15 1019 30.09 848 25.04 4.9 40.8 93 3.9 39.1
02:20 1019 30.09 848 25.04 4.8 40.6 94 3.8 38.9
02:25 1019 30.09 848 25.04 4.7 40.4 94 3.8 38.8
02:30 1019 30.09 848 25.04 4.7 40.4 94 3.7 38.7
02:35 1019 30.09 848 25.04 4.7 40.5 93 3.7 38.7
02:40 1019 30.09 848 25.04 4.8 40.7 93 3.7 38.7
02:45 1019 30.09 848 25.04 4.8 40.7 92 3.6 38.6
02:50 1019 30.09 848 25.04 4.7 40.5 93 3.6 38.5
02:55 1019 30.09 848 25.04 4.9 40.8 91 3.6 38.5
03:00 1019 30.09 848 25.04 4.9 40.7 91 3.6 38.4
03:05 1019 30.09 848 25.04 4.7 40.5 92 3.5 38.3
03:10 1019 30.09 848 25.04 4.6 40.3 92 3.4 38.2
03:15 1019 30.09 848 25.04 4.4 40 93 3.4 38.2
03:20 1019 30.09 848 25.04 4.5 40.1 92 3.4 38.1
03:25 1019 30.09 848 25.04 4.5 40.2 92 3.4 38
03:30 1019 30.09 848 25.04 4.4 40 92 3.3 37.9
03:35 1019 30.09 848 25.04 4.2 39.6 93 3.2 37.7
03:40 1019 30.09 848 25.04 4 39.2 94 3 37.5
03:45 1019 30.09 848 25.04 3.7 38.7 94 2.8 37.1
03:50 1019 30.09 848 25.04 3.8 38.8 93 2.7 36.9
03:55 1019 30.09 848 25.04 3.8 38.9 93 2.8 37
04:00 1019 30.09 848 25.04 3.9 38.9 92 2.7 36.9
04:05 1019 30.09 848 25.04 4.1 39.3 91 2.7 36.8
04:10 1019 30.09 848 25.04 4.1 39.4 91 2.7 36.9
04:15 1019 30.09 848 25.04 4.1 39.4 90 2.7 36.8
04:20 1019 30.09 848 25.04 4.1 39.3 90 2.6 36.7
04:25 1019 30.09 848 25.04 3.8 38.8 91 2.5 36.5
04:30 1019 30.09 848 25.04 3.4 38.2 93 2.3 36.2
04:35 1019 30.09 848 25.04 3.4 38.1 93 2.3 36.2
04:40 1019 30.09 848 25.04 3.5 38.4 92 2.3 36.2
04:45 1019 30.09 848 25.04 3.5 38.3 92 2.3 36.2
04:50 1019 30.09 848 25.04 3.4 38.1 92 2.2 36
04:55 1019 30.09 848 25.04 3.4 38.1 92 2.3 36.1
05:00 1019 30.09 848 25.04 3.3 38 93 2.3 36.1
05:05 1019 30.09 848 25.04 3.4 38.1 92 2.2 36
05:10 1019 30.09 848 25.04 3.5 38.4 91 2.2 36
05:15 1019 30.09 848 25.04 3.8 38.8 89 2.2 35.9
05:20 1019 30.09 848 25.04 4.2 39.5 87 2.2 35.9
05:25 1019 30.09 848 25.04 4 39.2 88 2.2 35.9
05:30 1019 30.09 848 25.04 3.8 38.8 89 2.1 35.9
05:35 1019 30.09 848 25.04 3.7 38.7 89 2.1 35.7
05:40 1019 30.09 848 25.04 3.7 38.6 89 2 35.6
05:45 1019 30.09 848 25.04 3.9 39.1 87 1.9 35.5
05:50 1019 30.09 849 25.07 4 39.2 87 2.1 35.7
05:55 1019 30.09 849 25.07 4 39.1 88 2.2 35.9
06:00 1019 30.09 849 25.07 3.8 38.8 89 2.2 35.9
06:05 1019 30.09 849 25.07 3.5 38.3 90 2.1 35.8
06:10 1019 30.09 849 25.07 3.4 38.1 92 2.1 35.8
06:15 1019 30.09 849 25.07 3.6 38.4 91 2.2 36
06:20 1019 30.09 849 25.07 3.5 38.4 91 2.1 35.9
06:25 1020 30.12 849 25.07 3.8 38.8 88 1.9 35.5
06:30 1019 30.09 849 25.07 3.9 39 88 2.1 35.8
06:35 1019 30.09 849 25.07 3.8 38.9 87 1.9 35.5
06:40 1019 30.09 849 25.07 3.9 39.1 86 1.8 35.2
06:45 1019 30.09 849 25.07 4 39.2 86 1.9 35.5
06:50 1019 30.09 849 25.07 3.5 38.3 89 1.8 35.2
06:55 1019 30.09 849 25.07 3.4 38.2 88 1.6 34.9
07:00 1019 30.09 849 25.07 3.5 38.3 88 1.7 35.1
07:05 1020 30.12 849 25.07 3.7 38.6 87 1.8 35.2
07:10 1020 30.12 849 25.07 3.4 38 90 1.8 35.3
07:15 1020 30.12 849 25.07 3.2 37.7 90 1.7 35.1
07:20 1020 30.12 849 25.07 3.3 38 89 1.8 35.2
07:25 1020 30.12 849 25.07 3.3 38 90 1.8 35.3
07:30 1020 30.12 849 25.07 3.1 37.6 92 1.9 35.4
07:35 1020 30.12 849 25.07 3.2 37.7 92 2 35.5
07:40 1020 30.12 849 25.07 3.4 38.2 91 2.1 35.7
07:45 1020 30.12 849 25.07 3.6 38.4 91 2.3 36.1
07:50 1020 30.12 849 25.07 3.6 38.5 91 2.3 36.1
07:55 1020 30.12 849 25.07 3.8 38.8 90 2.3 36.1
08:00 1020 30.12 849 25.07 4 39.2 90 2.5 36.4
08:05 1020 30.12 849 25.07 4.2 39.5 89 2.5 36.5
08:10 1020 30.12 849 25.07 4.2 39.6 89 2.6 36.6
08:15 1020 30.12 849 25.07 4.3 39.7 88 2.5 36.4
08:20 1020 30.12 849 25.07 4.4 40 89 2.8 37.1
08:25 1020 30.12 849 25.07 4.6 40.2 89 2.9 37.1
08:30 1020 30.12 849 25.07 4.8 40.6 88 3 37.3
08:35 1020 30.12 849 25.07 5.4 41.8 86 3.3 38
08:40 1020 30.12 849 25.07 6.2 43.2 84 3.7 38.7
08:45 1020 30.12 849 25.07 6.3 43.4 83 3.7 38.7
08:50 1020 30.12 849 25.07 6.5 43.6 84 4 39.2
08:55 1020 30.12 849 25.07 6.5 43.8 84 4 39.2
09:00 1020 30.12 849 25.07 6.7 44.1 83 4 39.2
09:05 1020 30.12 849 25.07 6.7 44.1 82 3.9 39
09:10 1020 30.12 849 25.07 6.8 44.3 85 4.5 40.2
09:15 1020 30.12 849 25.07 7.3 45.2 81 4.3 39.7
09:20 1020 30.12 849 25.07 7.4 45.2 82 4.5 40
09:25 1020 30.12 849 25.07 7.4 45.3 84 4.9 40.9
09:30 1020 30.12 849 25.07 7.8 46 83 5 41.1
09:35 1020 30.12 849 25.07 8.1 46.5 79 4.7 40.4
09:40 1020 30.12 849 25.07 8.1 46.6 77 4.3 39.7
09:45 1020 30.12 849 25.07 8.5 47.2 77 4.7 40.5
09:50 1020 30.12 849 25.07 9 48.2 76 5.1 41.2
09:55 1020 30.12 849 25.07 9.3 48.7 69 4 39.2
10:00 1020 30.12 849 25.07 9.2 48.5 71 4.2 39.5
10:05 1020 30.12 849 25.07 9.7 49.5 69 4.3 39.7
10:10 1020 30.12 849 25.07 10.5 50.9 62 3.7 38.6
10:15 1020 30.12 849 25.07 11 51.8 64 4.4 40
10:20 1020 30.12 849 25.07 11 51.7 63 4.3 39.7
10:25 1020 30.12 849 25.07 11.9 53.4 61 4.8 40.6
10:30 1020 30.12 849 25.07 11.6 52.9 62 4.7 40.4
10:35 1020 30.12 849 25.07 11.3 52.3 62 4.2 39.6
10:40 1020 30.12 849 25.07 11.4 52.4 59 3.8 38.8
10:45 1020 30.12 849 25.07 11.7 53 59 3.9 39
10:50 1020 30.12 849 25.07 13.2 55.7 55 4.3 39.7
10:55 1020 30.12 849 25.07 13.3 55.9 57 5.1 41.1
11:00 1020 30.12 849 25.07 12.5 54.4 53 3.3 38
11:05 1020 30.12 849 25.07 13.6 56.4 51 3.8 38.8
11:10 1020 30.12 849 25.07 14 57.2 50 3.8 38.8
11:15 1020 30.12 849 25.07 13.8 56.8 54 4.7 40.4
11:20 1020 30.12 849 25.07 13 55.4 60 5.4 41.7
11:25 1020 30.12 849 25.07 13.1 55.7 57 4.8 40.6
11:30 1020 30.12 849 25.07 13.3 55.9 56 4.7 40.5
11:35 1020 30.12 849 25.07 12.8 55 60 5.3 41.5
11:40 1020 30.12 849 25.07 12 53.5 61 4.8 40.6
11:45 1020 30.12 849 25.07 12.1 53.8 61 4.8 40.6
11:50 1020 30.12 849 25.07 12.2 53.9 63 5.3 41.6
11:55 1020 30.12 849 25.07 11.9 53.3 68 6.1 43
12:00 1020 30.12 849 25.07 11.4 52.4 66 5.3 41.6
12:05 1020 30.12 849 25.07 11.9 53.5 63 5.1 41.2
12:10 1020 30.12 849 25.07 11.6 52.9 66 5.6 42.1
12:15 1020 30.12 849 25.07 11.7 53 65 5.4 41.8
12:20 1020 30.12 849 25.07 11.6 53 62 4.7 40.5
12:25 1020 30.12 849 25.07 11.6 52.8 61 4.5 40
12:30 1020 30.12 849 25.07 12.3 54.1 56 3.9 39
12:35 1020 30.12 849 25.07 11.9 53.4 58 4 39.2
12:40 1020 30.12 849 25.07 12.7 54.8 53 3.4 38.1
12:45 1020 30.12 849 25.07 12.8 55.1 56 4.4 39.9
12:50 1020 30.12 849 25.07 13.3 56 52 3.7 38.6
12:55 1020 30.12 849 25.07 13.5 56.4 53 4.1 39.4
13:00 1020 30.12 849 25.07 12.8 55.1 54 3.8 38.9
13:05 1020 30.12 849 25.07 13.2 55.8 52 3.6 38.4
13:10 1019 30.09 849 25.07 13.9 56.9 50 3.8 38.9
13:15 1019 30.09 849 25.07 14.1 57.3 48 3.4 38.1
13:20 1019 30.09 849 25.07 15 59.1 45 3.4 38.2
13:25 1019 30.09 849 25.07 16.3 61.4 43 3.9 39.1
13:30 1019 30.09 849 25.07 16.5 61.6 41 3.2 37.8
13:35 1019 30.09 848 25.04 16.7 62.1 41 3.6 38.5
13:40 1019 30.09 848 25.04 16.3 61.3 44 4.2 39.6
13:45 1019 30.09 848 25.04 14.9 58.8 47 3.8 38.8
13:50 1019 30.09 848 25.04 15 59 49 4.5 40
13:55 1019 30.09 848 25.04 14.9 58.7 49 4.3 39.7
14:00 1019 30.09 848 25.04 13.7 56.7 53 4.4 39.9
14:05 1019 30.09 848 25.04 14.2 57.6 47 3 37.5
14:10 1019 30.09 848 25.04 14.1 57.3 44 2.2 35.9
14:15 1019 30.09 848 25.04 13.3 56 45 1.8 35.2
14:20 1019 30.09 848 25.04 13.1 55.6 48 2.3 36.1
14:25 1019 30.09 848 25.04 13.3 56 46 2 35.7
14:30 1019 30.09 848 25.04 13.3 55.9 48 2.7 36.9
14:35 1019 30.09 848 25.04 13.1 55.5 49 2.5 36.6
14:40 1019 30.09 848 25.04 12.9 55.2 52 3.3 38
14:45 1019 30.09 848 25.04 12.9 55.3 47 1.9 35.5
14:50 1019 30.09 848 25.04 13.4 56.1 48 2.6 36.6
14:55 1019 30.09 848 25.04 13.8 56.9 42 1.3 34.4
15:00 1019 30.09 848 25.04 14.1 57.3 45 2.4 36.3
15:05 1019 30.09 848 25.04 14.2 57.5 45 2.6 36.7
15:10 1019 30.09 848 25.04 14.1 57.3 45 2.4 36.3
15:15 1019 30.09 848 25.04 14.4 57.9 45 2.7 36.8
15:20 1019 30.09 848 25.04 14.6 58.2 45 2.8 37.1
15:25 1019 30.09 848 25.04 14.1 57.4 50 3.9 39
15:30 1019 30.09 848 25.04 13.9 57 47 2.9 37.2
15:35 1019 30.09 848 25.04 14.1 57.3 46 2.7 36.9
15:40 1019 30.09 848 25.04 14.2 57.6 43 2.1 35.7
15:45 1019 30.09 848 25.04 14.3 57.8 43 1.9 35.4
15:50 1019 30.09 848 25.04 14.8 58.6 43 2.3 36.2
15:55 1019 30.09 848 25.04 14.9 58.8 42 2.1 35.8
16:00 1019 30.09 848 25.04 14.8 58.6 42 2.2 35.9
16:05 1019 30.09 848 25.04 14.8 58.7 43 2.4 36.2
16:10 1019 30.09 848 25.04 14.9 58.7 45 3.1 37.6
16:15 1019 30.09 848 25.04 14.6 58.3 52 4.9 40.8
16:20 1019 30.09 848 25.04 14.1 57.3 54 5 41
16:25 1019 30.09 848 25.04 13.5 56.4 56 5 41
16:30 1019 30.09 848 25.04 13.4 56 56 4.8 40.7
16:35 1019 30.09 848 25.04 13.2 55.7 58 5.1 41.1
16:40 1019 30.09 848 25.04 13.3 55.9 58 5.2 41.4
16:45 1019 30.09 848 25.04 13.2 55.7 58 5.3 41.5
16:50 1019 30.09 848 25.04 12.9 55.3 60 5.5 41.9
16:55 1019 30.09 848 25.04 12.4 54.4 62 5.4 41.6
17:00 1019 30.09 848 25.04 12.5 54.5 62 5.5 41.9
17:05 1019 30.09 848 25.04 12.5 54.4 63 5.7 42.2
17:10 1019 30.09 848 25.04 12.4 54.3 61 5.1 41.3
17:15 1019 30.09 848 25.04 12.3 54.2 62 5.3 41.6
17:20 1019 30.09 848 25.04 12.4 54.3 62 5.4 41.7
17:25 1019 30.09 848 25.04 12.7 54.8 59 5 41
17:30 1018 30.06 848 25.04 13.6 56.5 55 4.7 40.5
17:35 1018 30.06 848 25.04 14.6 58.3 51 4.8 40.6
17:40 1018 30.06 848 25.04 15.3 59.5 49 4.8 40.7
17:45 1018 30.06 848 25.04 15.3 59.5 44 3.1 37.6
17:50 1018 30.06 848 25.04 15.3 59.6 43 3 37.3
17:55 1018 30.06 848 25.04 15.4 59.7 44 3.4 38
18:00 1018 30.06 848 25.04 15.5 59.8 43 3.1 37.6
18:05 1018 30.06 847 25.01 15.4 59.6 43 3 37.5
18:10 1018 30.06 847 25.01 15.5 59.9 43 2.9 37.3
18:15 1018 30.06 847 25.01 15.4 59.8 43 2.9 37.3
18:20 1018 30.06 847 25.01 15.4 59.7 43 2.9 37.2
18:25 1018 30.06 847 25.01 15.3 59.5 44 3.1 37.6
18:30 1018 30.06 847 25.01 15.3 59.6 44 3.2 37.7
18:35 1018 30.06 847 25.01 15.4 59.7 44 3.4 38
18:40 1018 30.06 847 25.01 15.2 59.4 43 2.7 36.8
18:45 1018 30.06 847 25.01 15 59 45 3.1 37.6
18:50 1018 30.06 847 25.01 14.8 58.6 46 3.4 38.1
18:55 1018 30.06 847 25.01 14.6 58.3 47 3.6 38.5
19:00 1018 30.06 847 25.01 14.4 57.9 48 3.7 38.7
19:05 1018 30.06 847 25.01 14.2 57.6 49 3.7 38.7
19:10 1018 30.06 847 25.01 14.1 57.3 49 3.7 38.6
19:15 1018 30.06 847 25.01 14 57.3 50 3.8 38.8
19:20 1018 30.06 847 25.01 14 57.2 49 3.7 38.6
19:25 1018 30.06 847 25.01 14 57.3 49 3.5 38.3
19:30 1018 30.06 847 25.01 14.1 57.3 50 3.8 38.9
19:35 1018 30.06 847 25.01 14 57.2 51 4 39.2
19:40 1018 30.06 847 25.01 13.8 56.8 52 4.2 39.6
19:45 1018 30.06 847 25.01 13.6 56.5 52 4.1 39.4
19:50 1018 30.06 847 25.01 13.5 56.4 52 4.1 39.3
19:55 1018 30.06 847 25.01 13.6 56.4 53 4.3 39.8
20:00 1018 30.06 847 25.01 13.6 56.4 56 5 41
20:05 1018 30.06 847 25.01 13 55.4 58 5 41
20:10 1018 30.06 847 25.01 12.7 54.9 58 4.7 40.4
20:15 1018 30.06 847 25.01 12.8 55 57 4.6 40.2
20:20 1018 30.06 847 25.01 12.9 55.1 56 4.5 40.1
20:25 1018 30.06 847 25.01 13 55.4 56 4.6 40.3
20:30 1018 30.06 847 25.01 12.8 55.1 59 5 41
20:35 1018 30.06 847 25.01 12.6 54.7 59 4.9 40.9
20:40 1018 30.06 847 25.01 12.5 54.5 60 5.1 41.1
20:45 1018 30.06 847 25.01 12.4 54.4 62 5.3 41.6
20:50 1018 30.06 847 25.01 12.3 54.1 64 5.6 42.2
20:55 1018 30.06 847 25.01 12.1 53.8 65 5.7 42.2
21:00 1018 30.06 847 25.01 11.9 53.5 65 5.7 42.2
21:05 1018 30.06 847 25.01 11.9 53.4 63 5 41
21:10 1018 30.06 847 25.01 12 53.6 64 5.4 41.8
21:15 1018 30.06 847 25.01 11.8 53.3 67 5.9 42.7
21:20 1018 30.06 847 25.01 11.5 52.7 67 5.7 42.2
21:25 1018 30.06 847 25.01 11.3 52.3 68 5.6 42
21:30 1018 30.06 847 25.01 11.2 52.2 67 5.3 41.5
21:35 1018 30.06 847 25.01 11.3 52.3 66 5.1 41.2
21:40 1017 30.03 847 25.01 11.4 52.5 65 5 41
21:45 1017 30.03 847 25.01 11.3 52.4 65 5.1 41.3
21:50 1017 30.03 847 25.01 11.3 52.4 65 4.9 40.9
21:55 1017 30.03 847 25.01 11.4 52.5 65 5.1 41.1
22:00 1017 30.03 847 25.01 11.4 52.5 65 5 41.1
22:05 1017 30.03 847 25.01 11.4 52.4 65 5 41
22:10 1017 30.03 846 24.98 11.2 52.2 65 5 41
22:15 1017 30.03 847 25.01 11.1 52 65 4.9 40.9
22:20 1017 30.03 846 24.98 11.1 51.9 65 4.8 40.6
22:25 1017 30.03 846 24.98 11 51.8 65 4.8 40.6
22:30 1017 30.03 846 24.98 10.9 51.7 66 4.8 40.6
22:35 1017 30.03 846 24.98 10.9 51.6 66 4.7 40.5
22:40 1017 30.03 846 24.98 10.9 51.5 66 4.8 40.6
22:45 1017 30.03 846 24.98 10.8 51.5 67 4.9 40.8
22:50 1017 30.03 846 24.98 10.7 51.3 67 4.9 40.7
22:55 1017 30.03 846 24.98 10.6 51.2 67 4.9 40.8
23:00 1017 30.03 846 24.98 10.5 51 68 5 41
23:05 1017 30.03 846 24.98 10.3 50.5 71 5.3 41.6
23:10 1017 30.03 846 24.98 10.1 50.1 72 5.2 41.3
23:15 1017 30.03 846 24.98 9.9 49.9 73 5.4 41.7
23:20 1017 30.03 846 24.98 9.8 49.7 74 5.4 41.7
23:25 1017 30.03 846 24.98 9.7 49.5 74 5.3 41.5
23:30 1017 30.03 846 24.98 9.6 49.4 73 5.1 41.2
23:35 1017 30.03 846 24.98 9.7 49.4 71 4.8 40.6
23:40 1017 30.03 846 24.98 9.8 49.7 71 4.9 40.8
23:45 1017 30.03 846 24.98 9.7 49.5 72 4.9 40.9
23:50 1017 30.03 846 24.98 9.6 49.3 72 4.8 40.7
23:55 1017 30.03 846 24.98 9.6 49.3 70 4.4 39.8
24:00 1017 30.03 846 24.98 9.9 49.8 69 4.6 40.2